Time;durP1;ratioP1;P1;durP2;ratioP2;P2;SDS_P1;SDS_P2;PMS_P1;PMS_P2;Temp;Humidity;BMP_temperature;BMP_pressure;BME280_temperature;BME280_humidity;BME280_pressure;Samples;Min_cycle;Max_cycle;Signal;HPM_P1;HPM_P2
2023/09/18 00:02:25;;;;;;;30.80;28.50;;;;;;;;;;5077398;28;20555;-81
2023/09/18 00:04:51;;;;;;;30.15;27.67;;;;;;;;;;5060578;28;20040;-81
2023/09/18 00:07:18;;;;;;;32.78;30.05;;;;;;;;;;5077571;28;20071;-81
2023/09/18 00:09:44;;;;;;;54.47;44.95;;;;;;;;;;5078354;28;20048;-81
2023/09/18 00:12:10;;;;;;;34.28;31.05;;;;;;;;;;5077383;28;20046;-82
2023/09/18 00:14:36;;;;;;;30.40;27.63;;;;;;;;;;5077354;28;20151;-81
2023/09/18 00:17:03;;;;;;;31.85;28.92;;;;;;;;;;5078128;28;20097;-81
2023/09/18 00:19:29;;;;;;;39.05;35.35;;;;;;;;;;5077201;28;20110;-81
2023/09/18 00:21:56;;;;;;;38.22;35.08;;;;;;;;;;5077443;28;20047;-81
2023/09/18 00:24:22;;;;;;;37.47;34.42;;;;;;;;;;5077138;28;20051;-81
2023/09/18 00:26:48;;;;;;;31.70;28.65;;;;;;;;;;5076805;28;20047;-81
2023/09/18 00:29:15;;;;;;;31.02;28.30;;;;;;;;;;5077184;28;20414;-81
2023/09/18 00:31:41;;;;;;;33.38;30.50;;;;;;;;;;5060347;28;20048;-81
2023/09/18 00:34:07;;;;;;;37.65;34.55;;;;;;;;;;5076982;28;20134;-81
2023/09/18 00:36:33;;;;;;;37.25;34.05;;;;;;;;;;5077749;28;20055;-81
2023/09/18 00:38:59;;;;;;;36.53;33.47;;;;;;;;;;5076617;28;20044;-81
2023/09/18 00:41:25;;;;;;;36.80;33.65;;;;;;;;;;5076834;28;20051;-81
2023/09/18 00:43:51;;;;;;;36.95;33.95;;;;;;;;;;5076618;28;20519;-81
2023/09/18 00:46:17;;;;;;;42.08;38.17;;;;;;;;;;5060121;28;20048;-81
2023/09/18 00:48:43;;;;;;;32.92;30.15;;;;;;;;;;5076962;28;20143;-81
2023/09/18 00:51:10;;;;;;;38.15;34.88;;;;;;;;;;5076718;28;20040;-80
2023/09/18 00:53:38;;;;;;;43.28;39.00;;;;;;;;;;5076484;28;20055;-80
2023/09/18 00:56:04;;;;;;;37.75;34.55;;;;;;;;;;5076192;28;20040;-81
2023/09/18 00:58:30;;;;;;;42.25;38.42;;;;;;;;;;5094434;28;20056;-81
2023/09/18 01:00:56;;;;;;;40.88;37.42;;;;;;;;;;5077318;28;20055;-81
2023/09/18 01:03:25;;;;;;;41.38;37.67;;;;;;;;;;5076311;28;20140;-80
2023/09/18 01:05:51;;;;;;;37.35;34.25;;;;;;;;;;5075970;28;20123;-81
2023/09/18 01:08:17;;;;;;;34.90;32.00;;;;;;;;;;5076658;28;20188;-81
2023/09/18 01:11:05;;;;;;;39.60;36.17;;;;;;;;;;5059416;28;20052;-81
2023/09/18 01:13:36;;;;;;;35.95;33.05;;;;;;;;;;5076117;28;20073;-81
2023/09/18 01:16:05;;;;;;;40.00;36.70;;;;;;;;;;5076581;28;20078;-81
2023/09/18 01:18:31;;;;;;;37.70;34.53;;;;;;;;;;5076374;28;20394;-81
2023/09/18 01:20:57;;;;;;;37.10;33.95;;;;;;;;;;5059697;28;20094;-81
2023/09/18 01:23:23;;;;;;;36.72;33.75;;;;;;;;;;5076144;28;20052;-81
2023/09/18 01:25:49;;;;;;;37.28;34.22;;;;;;;;;;5077026;28;20047;-81
2023/09/18 01:28:16;;;;;;;34.92;31.92;;;;;;;;;;5075978;28;20547;-81
2023/09/18 01:30:42;;;;;;;39.35;35.83;;;;;;;;;;5059748;28;20103;-81
2023/09/18 01:33:10;;;;;;;39.33;35.75;;;;;;;;;;5042901;28;20048;-81
2023/09/18 01:35:37;;;;;;;35.13;32.13;;;;;;;;;;5059013;28;20084;-82
2023/09/18 01:38:04;;;;;;;36.92;33.78;;;;;;;;;;5075831;28;20044;-81
2023/09/18 01:40:31;;;;;;;34.85;31.88;;;;;;;;;;5075938;28;20055;-82
2023/09/18 01:42:57;;;;;;;35.95;32.72;;;;;;;;;;5075930;28;20131;-81
2023/09/18 01:45:23;;;;;;;35.67;32.45;;;;;;;;;;5075593;28;20044;-81
2023/09/18 01:47:49;;;;;;;34.17;31.48;;;;;;;;;;5059522;28;20090;-81
2023/09/18 01:50:15;;;;;;;35.08;31.90;;;;;;;;;;5059231;28;20060;-82
2023/09/18 01:52:42;;;;;;;33.38;30.30;;;;;;;;;;5075671;28;20108;-80
2023/09/18 01:55:08;;;;;;;34.53;31.38;;;;;;;;;;5060045;28;20052;-82
2023/09/18 01:57:34;;;;;;;32.08;29.38;;;;;;;;;;5075530;28;20044;-81
2023/09/18 02:00:00;;;;;;;32.92;29.92;;;;;;;;;;5075731;28;20048;-81
2023/09/18 02:02:26;;;;;;;32.35;29.63;;;;;;;;;;5075705;28;20105;-81
2023/09/18 02:04:52;;;;;;;29.42;26.95;;;;;;;;;;5075460;28;20131;-81
2023/09/18 02:07:18;;;;;;;31.05;28.55;;;;;;;;;;5061500;28;20040;-81
2023/09/18 02:09:44;;;;;;;32.55;29.88;;;;;;;;;;5079802;28;20138;-81
2023/09/18 02:12:16;;;;;;;31.45;28.92;;;;;;;;;;5063409;28;20072;-81
2023/09/18 02:14:43;;;;;;;30.52;27.98;;;;;;;;;;5080572;28;20126;-82
2023/09/18 02:17:09;;;;;;;30.90;28.23;;;;;;;;;;5080402;28;20044;-82
2023/09/18 02:19:35;;;;;;;32.78;29.75;;;;;;;;;;5062940;28;20131;-81
2023/09/18 02:22:02;;;;;;;34.83;31.88;;;;;;;;;;5062562;28;20051;-82
2023/09/18 02:24:28;;;;;;;31.83;29.20;;;;;;;;;;5063221;28;20040;-81
2023/09/18 02:26:54;;;;;;;32.75;29.75;;;;;;;;;;5063670;28;20337;-82
2023/09/18 02:29:20;;;;;;;30.08;27.50;;;;;;;;;;5079503;28;20093;-81
2023/09/18 02:31:46;;;;;;;29.95;27.42;;;;;;;;;;5079478;28;20440;-81
2023/09/18 02:34:12;;;;;;;31.33;28.63;;;;;;;;;;5047019;28;20040;-81
2023/09/18 02:36:39;;;;;;;28.90;26.60;;;;;;;;;;5097681;28;20044;-81
2023/09/18 02:39:05;;;;;;;28.63;26.23;;;;;;;;;;5080040;28;20036;-81
2023/09/18 02:41:31;;;;;;;27.17;24.75;;;;;;;;;;5079299;28;20092;-81
2023/09/18 02:43:57;;;;;;;26.27;24.08;;;;;;;;;;5079926;28;20123;-81
2023/09/18 02:46:23;;;;;;;24.45;22.45;;;;;;;;;;5079218;28;20468;-81
2023/09/18 02:48:49;;;;;;;24.23;22.30;;;;;;;;;;5062488;28;20043;-81
2023/09/18 02:51:15;;;;;;;25.17;22.98;;;;;;;;;;5062078;28;20047;-81
2023/09/18 02:53:41;;;;;;;22.80;20.60;;;;;;;;;;5078324;28;20051;-81
2023/09/18 02:56:07;;;;;;;28.65;25.88;;;;;;;;;;5078844;28;20067;-81
2023/09/18 02:58:33;;;;;;;22.25;20.38;;;;;;;;;;5062231;28;20039;-82
2023/09/18 03:01:00;;;;;;;22.42;20.50;;;;;;;;;;5063055;28;20040;-82
2023/09/18 03:03:26;;;;;;;23.88;21.90;;;;;;;;;;5079525;28;20040;-82
2023/09/18 03:05:52;;;;;;;22.52;20.70;;;;;;;;;;5078770;28;20062;-82
2023/09/18 03:08:18;;;;;;;21.50;19.67;;;;;;;;;;5079051;28;20448;-81
2023/09/18 03:10:45;;;;;;;21.77;19.83;;;;;;;;;;5079027;28;20043;-81
2023/09/18 03:13:12;;;;;;;20.95;19.13;;;;;;;;;;5062163;28;20055;-80
2023/09/18 03:15:38;;;;;;;20.77;18.98;;;;;;;;;;5079154;28;20106;-81
2023/09/18 03:18:07;;;;;;;20.58;18.90;;;;;;;;;;5077958;28;20032;-81
2023/09/18 03:20:33;;;;;;;20.02;18.48;;;;;;;;;;5078488;28;20126;-81
2023/09/18 03:23:00;;;;;;;21.05;19.23;;;;;;;;;;5044989;28;20531;-81
2023/09/18 03:25:26;;;;;;;20.77;18.95;;;;;;;;;;5096302;28;20059;-81
2023/09/18 03:27:53;;;;;;;20.50;18.88;;;;;;;;;;5078360;28;20130;-81
2023/09/18 03:30:19;;;;;;;20.63;18.83;;;;;;;;;;5078368;28;20535;-81
2023/09/18 03:32:45;;;;;;;19.73;17.83;;;;;;;;;;5078369;28;20036;-81
2023/09/18 03:35:18;;;;;;;21.40;19.40;;;;;;;;;;5078328;28;20055;-81
2023/09/18 03:37:51;;;;;;;20.02;18.27;;;;;;;;;;5062227;28;20131;-81
2023/09/18 03:40:18;;;;;;;20.35;18.40;;;;;;;;;;5078089;28;20036;-81
2023/09/18 03:42:44;;;;;;;22.85;20.63;;;;;;;;;;5078916;28;20072;-82
2023/09/18 03:45:11;;;;;;;21.55;19.63;;;;;;;;;;5077910;28;20376;-81
2023/09/18 03:47:39;;;;;;;20.15;18.17;;;;;;;;;;5078066;28;20036;-81
2023/09/18 03:50:05;;;;;;;20.65;18.75;;;;;;;;;;5061238;28;20399;-81
2023/09/18 03:52:31;;;;;;;19.65;17.77;;;;;;;;;;5087450;28;20059;-81
2023/09/18 03:54:58;;;;;;;21.48;19.48;;;;;;;;;;5057929;28;20059;-81
2023/09/18 03:57:24;;;;;;;21.13;19.25;;;;;;;;;;5058082;28;20349;-81
2023/09/18 03:59:50;;;;;;;22.35;20.17;;;;;;;;;;5057760;28;20040;-81
2023/09/18 04:02:16;;;;;;;22.50;20.50;;;;;;;;;;5058018;28;20048;-81
2023/09/18 04:04:43;;;;;;;20.88;18.98;;;;;;;;;;5057752;28;20407;-81
2023/09/18 04:07:09;;;;;;;21.85;19.73;;;;;;;;;;5058408;28;20048;-81
2023/09/18 04:09:36;;;;;;;20.98;19.08;;;;;;;;;;5040989;28;20055;-81
2023/09/18 04:12:02;;;;;;;22.13;19.88;;;;;;;;;;5057299;28;20052;-82
2023/09/18 04:14:28;;;;;;;21.80;19.70;;;;;;;;;;5057561;28;20052;-81
2023/09/18 04:16:55;;;;;;;19.13;17.55;;;;;;;;;;5057466;28;20098;-81
2023/09/18 04:19:21;;;;;;;21.70;19.73;;;;;;;;;;5057199;28;20472;-81
2023/09/18 04:21:47;;;;;;;20.48;18.75;;;;;;;;;;5057359;28;20040;-81
2023/09/18 04:24:14;;;;;;;20.80;18.70;;;;;;;;;;5057088;28;20041;-81
2023/09/18 04:26:40;;;;;;;20.40;18.67;;;;;;;;;;5058055;28;20404;-82
2023/09/18 04:29:06;;;;;;;19.42;17.73;;;;;;;;;;5057462;28;20143;-81
2023/09/18 04:31:32;;;;;;;18.45;16.95;;;;;;;;;;5056125;28;20075;-81
2023/09/18 04:33:58;;;;;;;20.73;18.70;;;;;;;;;;5041270;28;20048;-81
2023/09/18 04:36:24;;;;;;;17.95;16.30;;;;;;;;;;5041013;28;20051;-82
2023/09/18 04:38:51;;;;;;;18.25;16.48;;;;;;;;;;5056952;28;20044;-81
2023/09/18 04:41:17;;;;;;;18.80;17.23;;;;;;;;;;5056443;28;20602;-81
2023/09/18 04:43:43;;;;;;;18.63;16.92;;;;;;;;;;5074457;28;20080;-81
2023/09/18 04:46:09;;;;;;;20.20;18.05;;;;;;;;;;5040047;28;20392;-81
2023/09/18 04:48:35;;;;;;;19.38;17.67;;;;;;;;;;5056781;28;20102;-82
2023/09/18 04:51:03;;;;;;;19.40;17.67;;;;;;;;;;5056713;28;20048;-82
2023/09/18 04:53:29;;;;;;;18.60;16.90;;;;;;;;;;5072733;28;20052;-82
2023/09/18 04:55:55;;;;;;;18.10;16.52;;;;;;;;;;5076562;28;20051;-81
2023/09/18 04:58:22;;;;;;;17.27;15.70;;;;;;;;;;5059987;28;20059;-82
2023/09/18 05:00:54;;;;;;;17.95;16.35;;;;;;;;;;5076373;28;20058;-81
2023/09/18 05:03:21;;;;;;;17.95;16.25;;;;;;;;;;5060159;28;20082;-82
2023/09/18 05:05:47;;;;;;;17.85;16.15;;;;;;;;;;5076418;28;20083;-82
2023/09/18 05:08:13;;;;;;;17.98;16.38;;;;;;;;;;5059957;28;20087;-82
2023/09/18 05:10:39;;;;;;;18.38;16.48;;;;;;;;;;5059642;28;20048;-81
2023/09/18 05:13:06;;;;;;;19.00;17.13;;;;;;;;;;5076369;28;20051;-81
2023/09/18 05:15:33;;;;;;;21.00;17.00;;;;;;;;;;5076254;28;20120;-81
2023/09/18 05:17:59;;;;;;;17.35;15.73;;;;;;;;;;5076530;28;20055;-82
2023/09/18 05:20:27;;;;;;;18.65;16.88;;;;;;;;;;5076620;28;20048;-81
2023/09/18 05:22:54;;;;;;;17.90;16.10;;;;;;;;;;5076956;28;20349;-82
2023/09/18 05:25:33;;;;;;;18.83;16.90;;;;;;;;;;5076730;28;20451;-81
2023/09/18 05:28:00;;;;;;;18.55;16.40;;;;;;;;;;5077136;28;20044;-81
2023/09/18 05:30:34;;;;;;;17.42;16.08;;;;;;;;;;5076191;28;20404;-81
2023/09/18 05:33:10;;;;;;;17.02;15.40;;;;;;;;;;5060292;28;20055;-81
2023/09/18 05:35:37;;;;;;;16.15;14.55;;;;;;;;;;5059440;28;20125;-81
2023/09/18 05:38:04;;;;;;;17.42;15.98;;;;;;;;;;5075782;28;20050;-81
2023/09/18 05:40:32;;;;;;;16.50;14.65;;;;;;;;;;5060181;28;20367;-82
2023/09/18 05:42:58;;;;;;;17.25;15.73;;;;;;;;;;5075616;28;20414;-81
2023/09/18 05:45:26;;;;;;;15.27;13.98;;;;;;;;;;5059017;28;20037;-82
2023/09/18 05:48:05;;;;;;;17.52;14.30;;;;;;;;;;5075979;28;20177;-82
2023/09/18 05:50:32;;;;;;;15.68;13.65;;;;;;;;;;5076828;28;20430;-82
2023/09/18 05:53:03;;;;;;;13.35;12.07;;;;;;;;;;5075488;28;20052;-81
2023/09/18 05:55:30;;;;;;;13.27;11.98;;;;;;;;;;5075887;28;20481;-81
2023/09/18 05:57:57;;;;;;;12.45;11.35;;;;;;;;;;5076679;28;20055;-81
2023/09/18 06:00:23;;;;;;;13.52;11.50;;;;;;;;;;5059209;28;20105;-81
2023/09/18 06:02:51;;;;;;;12.55;11.35;;;;;;;;;;5075839;28;20050;-81
2023/09/18 06:05:17;;;;;;;12.18;10.98;;;;;;;;;;5059886;28;20472;-80
2023/09/18 06:07:44;;;;;;;13.65;11.05;;;;;;;;;;5075706;28;20036;-80
2023/09/18 06:10:10;;;;;;;11.40;10.13;;;;;;;;;;5076596;28;20379;-80
2023/09/18 06:12:40;;;;;;;12.00;10.38;;;;;;;;;;5075725;28;20048;-79
2023/09/18 06:15:12;;;;;;;11.07;10.07;;;;;;;;;;5075920;28;20048;-80
2023/09/18 06:17:44;;;;;;;11.02;9.90;;;;;;;;;;5075737;28;20044;-80
2023/09/18 06:20:15;;;;;;;10.82;9.98;;;;;;;;;;5075710;28;20070;-80
2023/09/18 06:22:42;;;;;;;10.30;8.95;;;;;;;;;;5075623;28;20052;-80
2023/09/18 06:25:13;;;;;;;14.55;9.85;;;;;;;;;;5058817;28;20055;-80
2023/09/18 06:27:39;;;;;;;14.27;10.10;;;;;;;;;;5075893;28;20105;-80
2023/09/18 06:30:06;;;;;;;10.75;8.35;;;;;;;;;;5075809;28;20492;-80
2023/09/18 06:32:32;;;;;;;10.20;9.10;;;;;;;;;;5075175;28;20044;-79
2023/09/18 06:34:58;;;;;;;10.95;8.90;;;;;;;;;;5075213;28;20097;-80
2023/09/18 06:37:25;;;;;;;16.02;9.75;;;;;;;;;;5075720;28;20085;-80
2023/09/18 06:39:51;;;;;;;10.45;8.63;;;;;;;;;;5075514;28;20048;-80
2023/09/18 06:42:18;;;;;;;11.15;9.75;;;;;;;;;;5076023;28;20457;-79
2023/09/18 06:44:44;;;;;;;13.10;10.35;;;;;;;;;;5058455;28;20082;-80
2023/09/18 06:47:10;;;;;;;12.98;11.57;;;;;;;;;;5075391;28;20047;-80
2023/09/18 06:49:36;;;;;;;21.23;15.32;;;;;;;;;;5076285;28;20040;-81
2023/09/18 06:52:02;;;;;;;21.02;16.02;;;;;;;;;;5072529;28;20385;-79
2023/09/18 06:54:29;;;;;;;19.38;16.05;;;;;;;;;;5041448;28;20044;-78
2023/09/18 06:56:55;;;;;;;21.30;16.20;;;;;;;;;;5076535;28;20099;-79
2023/09/18 06:59:21;;;;;;;20.98;17.65;;;;;;;;;;5077080;28;20060;-78
2023/09/18 07:01:47;;;;;;;20.05;17.77;;;;;;;;;;5058789;28;20049;-78
2023/09/18 07:04:13;;;;;;;19.77;17.70;;;;;;;;;;5058953;28;20468;-78
2023/09/18 07:06:39;;;;;;;21.50;19.15;;;;;;;;;;5076413;28;20059;-80
2023/09/18 07:09:06;;;;;;;21.60;18.48;;;;;;;;;;5076352;28;20053;-80
2023/09/18 07:11:33;;;;;;;20.13;18.08;;;;;;;;;;5058584;28;20534;-81
2023/09/18 07:14:00;;;;;;;20.42;18.45;;;;;;;;;;5076220;28;20044;-82
2023/09/18 07:16:26;;;;;;;18.75;17.05;;;;;;;;;;5059426;28;20056;-82
2023/09/18 07:18:53;;;;;;;21.23;19.20;;;;;;;;;;5058244;28;20040;-83
2023/09/18 07:21:21;;;;;;;21.17;19.05;;;;;;;;;;5025494;28;20045;-83
2023/09/18 07:23:47;;;;;;;21.85;19.15;;;;;;;;;;5058324;28;20132;-83
2023/09/18 07:26:13;;;;;;;21.55;19.45;;;;;;;;;;5041878;28;20040;-82
2023/09/18 07:28:41;;;;;;;22.27;20.05;;;;;;;;;;5058407;28;20098;-82
2023/09/18 07:31:08;;;;;;;21.20;19.20;;;;;;;;;;5058336;28;20135;-84
2023/09/18 07:33:34;;;;;;;21.95;19.63;;;;;;;;;;5058250;28;20044;-82
2023/09/18 07:36:01;;;;;;;21.75;19.67;;;;;;;;;;5041702;28;20051;-82
2023/09/18 07:38:27;;;;;;;20.90;18.88;;;;;;;;;;5075815;28;20053;-83
2023/09/18 07:40:53;;;;;;;22.08;19.98;;;;;;;;;;5041514;28;20135;-83
2023/09/18 07:43:20;;;;;;;21.20;19.20;;;;;;;;;;5042418;28;20365;-83
2023/09/18 07:45:46;;;;;;;20.55;18.65;;;;;;;;;;5041700;28;20098;-82
2023/09/18 07:48:12;;;;;;;19.98;18.08;;;;;;;;;;5058043;28;20052;-82
2023/09/18 07:50:38;;;;;;;20.48;18.20;;;;;;;;;;5042289;28;20055;-81
2023/09/18 07:53:04;;;;;;;19.73;17.95;;;;;;;;;;5035084;28;20052;-82
2023/09/18 07:55:31;;;;;;;20.65;18.75;;;;;;;;;;5061615;28;20066;-82
2023/09/18 07:57:58;;;;;;;18.10;16.50;;;;;;;;;;5077822;28;20047;-81
2023/09/18 08:00:25;;;;;;;19.58;17.17;;;;;;;;;;5077899;28;20399;-81
2023/09/18 08:02:54;;;;;;;20.00;18.10;;;;;;;;;;5078575;28;20087;-81
2023/09/18 08:05:20;;;;;;;20.63;18.58;;;;;;;;;;5077281;28;20091;-82
2023/09/18 08:07:47;;;;;;;23.42;18.02;;;;;;;;;;5078160;28;20040;-82
2023/09/18 08:10:13;;;;;;;20.80;18.80;;;;;;;;;;5095475;28;20044;-81
2023/09/18 08:12:40;;;;;;;20.08;18.08;;;;;;;;;;5061051;28;20044;-81
2023/09/18 08:15:06;;;;;;;21.35;19.33;;;;;;;;;;5077831;28;20518;-81
2023/09/18 08:17:32;;;;;;;20.63;18.60;;;;;;;;;;5077479;28;20052;-81
2023/09/18 08:19:58;;;;;;;20.67;18.40;;;;;;;;;;5077385;28;20044;-81
2023/09/18 08:22:24;;;;;;;20.42;18.52;;;;;;;;;;5077394;28;20044;-81
2023/09/18 08:24:52;;;;;;;24.40;20.30;;;;;;;;;;5077070;28;20042;-81
2023/09/18 08:27:19;;;;;;;21.15;19.02;;;;;;;;;;5077306;28;20553;-82
2023/09/18 08:29:45;;;;;;;20.73;18.40;;;;;;;;;;5076988;28;20062;-81
2023/09/18 08:32:11;;;;;;;19.38;17.10;;;;;;;;;;5060621;28;20465;-81
2023/09/18 08:34:37;;;;;;;19.85;17.90;;;;;;;;;;5060820;28;20055;-81
2023/09/18 08:37:04;;;;;;;20.58;18.45;;;;;;;;;;5077875;28;20062;-81
2023/09/18 08:39:32;;;;;;;20.23;18.33;;;;;;;;;;5077677;28;20097;-82
2023/09/18 08:42:05;;;;;;;19.48;17.67;;;;;;;;;;5076927;28;20399;-82
2023/09/18 08:44:31;;;;;;;20.10;18.13;;;;;;;;;;5076727;28;20066;-82
2023/09/18 08:46:58;;;;;;;19.50;16.48;;;;;;;;;;5076855;28;20048;-81
2023/09/18 08:49:24;;;;;;;18.60;16.40;;;;;;;;;;5077049;28;20138;-82
2023/09/18 08:51:51;;;;;;;17.17;15.48;;;;;;;;;;5060708;28;20044;-82
2023/09/18 08:54:18;;;;;;;17.00;15.35;;;;;;;;;;5076182;28;20060;-81
2023/09/18 08:56:44;;;;;;;15.65;14.07;;;;;;;;;;5076640;28;20437;-82
2023/09/18 08:59:11;;;;;;;16.65;15.05;;;;;;;;;;5060270;28;20082;-82
2023/09/18 09:01:37;;;;;;;16.88;14.65;;;;;;;;;;5076540;28;20047;-82
2023/09/18 09:04:03;;;;;;;16.13;14.50;;;;;;;;;;5076134;28;20097;-82
2023/09/18 09:06:30;;;;;;;16.30;13.40;;;;;;;;;;5076407;28;20039;-82
2023/09/18 09:08:56;;;;;;;15.40;13.68;;;;;;;;;;5076801;28;20044;-81
2023/09/18 09:11:22;;;;;;;16.05;14.43;;;;;;;;;;5076746;28;20052;-82
2023/09/18 09:13:49;;;;;;;14.35;12.98;;;;;;;;;;5060541;28;20063;-82
2023/09/18 09:16:17;;;;;;;14.20;12.73;;;;;;;;;;5075772;28;20036;-81
2023/09/18 09:18:51;;;;;;;13.75;12.40;;;;;;;;;;5059591;28;20392;-81
2023/09/18 09:21:17;;;;;;;13.88;12.55;;;;;;;;;;5077113;28;20040;-81
2023/09/18 09:23:53;;;;;;;13.98;12.07;;;;;;;;;;5060321;28;20074;-81
2023/09/18 09:26:22;;;;;;;10.90;9.93;;;;;;;;;;5076540;28;20135;-82
2023/09/18 09:28:48;;;;;;;12.60;10.73;;;;;;;;;;5076206;28;20044;-81
2023/09/18 09:31:35;;;;;;;11.02;9.93;;;;;;;;;;5060217;28;20044;-82
2023/09/18 09:34:05;;;;;;;10.75;9.45;;;;;;;;;;5059508;28;20050;-81
2023/09/18 09:36:31;;;;;;;10.07;9.00;;;;;;;;;;5060314;28;20471;-81
2023/09/18 09:39:01;;;;;;;10.32;8.65;;;;;;;;;;5076077;28;20087;-81
2023/09/18 09:41:27;;;;;;;10.40;9.45;;;;;;;;;;5076435;28;20090;-81
2023/09/18 09:43:55;;;;;;;8.10;7.40;;;;;;;;;;5076767;28;20051;-81
2023/09/18 09:46:22;;;;;;;9.40;7.75;;;;;;;;;;5075970;28;20055;-82
2023/09/18 09:49:01;;;;;;;10.00;7.35;;;;;;;;;;5059240;28;20104;-81
2023/09/18 09:51:28;;;;;;;7.90;7.10;;;;;;;;;;5076294;28;20048;-82
2023/09/18 09:53:54;;;;;;;7.55;6.72;;;;;;;;;;5075336;28;20554;-81
2023/09/18 09:56:21;;;;;;;6.80;6.20;;;;;;;;;;5059407;28;20048;-82
2023/09/18 09:59:05;;;;;;;6.60;5.50;;;;;;;;;;5042995;28;20050;-81
2023/09/18 10:01:31;;;;;;;6.30;5.72;;;;;;;;;;5058885;28;20079;-81
2023/09/18 10:04:00;;;;;;;5.85;5.35;;;;;;;;;;5059031;28;20040;-81
2023/09/18 10:06:29;;;;;;;6.60;5.45;;;;;;;;;;5076474;28;20047;-82
2023/09/18 10:08:56;;;;;;;6.30;5.68;;;;;;;;;;5059517;28;20052;-81
2023/09/18 10:11:22;;;;;;;5.25;4.80;;;;;;;;;;5059083;28;20056;-81
2023/09/18 10:13:51;;;;;;;4.80;4.30;;;;;;;;;;5075747;28;20091;-81
2023/09/18 10:16:19;;;;;;;6.60;4.35;;;;;;;;;;5076579;28;20134;-81
2023/09/18 10:18:54;;;;;;;5.40;4.90;;;;;;;;;;5075641;28;20048;-81
2023/09/18 10:21:20;;;;;;;5.15;4.00;;;;;;;;;;5059884;28;20052;-81
2023/09/18 10:23:56;;;;;;;4.50;4.15;;;;;;;;;;5058439;28;20051;-81
2023/09/18 10:26:24;;;;;;;4.68;4.25;;;;;;;;;;5075583;28;20074;-81
2023/09/18 10:28:53;;;;;;;4.78;4.40;;;;;;;;;;5076964;28;20134;-81
2023/09/18 10:31:20;;;;;;;4.32;3.55;;;;;;;;;;5079391;28;20052;-81
2023/09/18 10:33:48;;;;;;;3.78;3.47;;;;;;;;;;5079329;28;20051;-81
2023/09/18 10:36:17;;;;;;;6.43;3.60;;;;;;;;;;5062623;28;20070;-81
2023/09/18 10:38:48;;;;;;;3.60;3.17;;;;;;;;;;5079435;28;20044;-80
2023/09/18 10:41:17;;;;;;;3.28;3.17;;;;;;;;;;5079279;28;20044;-81
2023/09/18 10:43:43;;;;;;;4.05;2.85;;;;;;;;;;5078797;28;20044;-81
2023/09/18 10:46:09;;;;;;;3.20;2.90;;;;;;;;;;5062390;28;20480;-81
2023/09/18 10:48:36;;;;;;;2.67;2.30;;;;;;;;;;5079959;28;20135;-81
2023/09/18 10:51:05;;;;;;;3.45;2.50;;;;;;;;;;5079365;28;20055;-81
2023/09/18 10:53:32;;;;;;;2.53;2.10;;;;;;;;;;5078534;28;20060;-82
2023/09/18 10:55:58;;;;;;;3.55;2.13;;;;;;;;;;5062532;28;20396;-82
2023/09/18 10:58:25;;;;;;;2.78;2.30;;;;;;;;;;5078653;28;20181;-81
2023/09/18 11:00:52;;;;;;;5.13;1.90;;;;;;;;;;5062568;28;20052;-81
2023/09/18 11:03:19;;;;;;;2.33;2.10;;;;;;;;;;5078843;28;20044;-80
2023/09/18 11:05:50;;;;;;;2.60;1.90;;;;;;;;;;5079296;28;20384;-81
2023/09/18 11:08:26;;;;;;;2.97;1.40;;;;;;;;;;5061990;28;20044;-81
2023/09/18 11:11:25;;;;;;;3.17;1.25;;;;;;;;;;5062306;28;20044;-81
2023/09/18 11:13:55;;;;;;;2.67;1.10;;;;;;;;;;5059954;28;20060;-81
2023/09/18 11:16:27;;;;;;;1.70;1.42;;;;;;;;;;5046618;28;20048;-81
2023/09/18 11:19:08;;;;;;;2.20;1.15;;;;;;;;;;5078791;28;20044;-81
2023/09/18 11:21:35;;;;;;;1.50;0.98;;;;;;;;;;5079390;28;20047;-80
2023/09/18 11:24:05;;;;;;;3.08;0.90;;;;;;;;;;5078313;28;20135;-81
2023/09/18 11:26:35;;;;;;;3.08;1.17;;;;;;;;;;5078385;28;20093;-81
2023/09/18 11:29:04;;;;;;;2.78;1.08;;;;;;;;;;5062072;28;20056;-81
2023/09/18 11:31:56;;;;;;;2.35;1.33;;;;;;;;;;5046391;28;20048;-80
2023/09/18 11:34:22;;;;;;;2.17;0.80;;;;;;;;;;5078322;28;20056;-81
2023/09/18 11:36:49;;;;;;;2.00;1.05;;;;;;;;;;5061818;28;20097;-81
2023/09/18 11:39:34;;;;;;;5.63;1.20;;;;;;;;;;5077641;28;20136;-82
2023/09/18 11:42:09;;;;;;;2.25;1.17;;;;;;;;;;5060989;28;20055;-82
2023/09/18 11:44:40;;;;;;;2.35;0.98;;;;;;;;;;5078489;28;20050;-82
2023/09/18 11:47:21;;;;;;;3.33;0.90;;;;;;;;;;5078382;28;20070;-81
2023/09/18 11:49:53;;;;;;;2.35;0.90;;;;;;;;;;5078296;28;20135;-81
2023/09/18 11:52:19;;;;;;;2.90;0.90;;;;;;;;;;5077460;28;20052;-80
2023/09/18 11:54:46;;;;;;;2.72;0.85;;;;;;;;;;5058045;28;20446;-81
2023/09/18 11:57:13;;;;;;;2.45;0.80;;;;;;;;;;5041414;28;20139;-81
2023/09/18 11:59:42;;;;;;;2.80;0.93;;;;;;;;;;5041209;28;20097;-81
2023/09/18 12:02:08;;;;;;;1.83;0.65;;;;;;;;;;5057765;28;20396;-81
2023/09/18 12:04:35;;;;;;;1.23;0.80;;;;;;;;;;5057486;28;20080;-81
2023/09/18 12:07:02;;;;;;;1.67;0.85;;;;;;;;;;5041728;28;20049;-81
2023/09/18 12:09:30;;;;;;;1.50;0.65;;;;;;;;;;5058414;28;20044;-81
2023/09/18 12:11:57;;;;;;;2.45;0.80;;;;;;;;;;5057784;28;20045;-81
2023/09/18 12:14:23;;;;;;;2.30;0.85;;;;;;;;;;5040883;28;20047;-80
2023/09/18 12:16:50;;;;;;;2.85;0.80;;;;;;;;;;5057390;28;20045;-80
2023/09/18 12:19:18;;;;;;;1.23;0.82;;;;;;;;;;5057391;28;20041;-81
2023/09/18 12:21:47;;;;;;;1.08;0.60;;;;;;;;;;5040543;28;20094;-81
2023/09/18 12:24:22;;;;;;;2.88;0.70;;;;;;;;;;5057935;28;20044;-81
2023/09/18 12:26:48;;;;;;;3.35;1.83;;;;;;;;;;5040392;28;20053;-82
2023/09/18 12:29:14;;;;;;;2.55;0.90;;;;;;;;;;5057206;28;20135;-79
2023/09/18 12:31:41;;;;;;;3.92;2.10;;;;;;;;;;5057352;28;20143;-78
2023/09/18 12:34:18;;;;;;;6.72;2.60;;;;;;;;;;5057436;28;20056;-83
2023/09/18 12:36:47;;;;;;;5.22;2.75;;;;;;;;;;5057799;28;20385;-81
2023/09/18 12:39:16;;;;;;;5.05;3.20;;;;;;;;;;5056949;28;20056;-77
2023/09/18 12:41:42;;;;;;;4.70;2.67;;;;;;;;;;5075142;28;20071;-78
2023/09/18 12:44:10;;;;;;;3.67;2.97;;;;;;;;;;5056791;28;20048;-77
2023/09/18 12:46:37;;;;;;;3.38;2.35;;;;;;;;;;5056873;28;20501;-79
2023/09/18 12:49:27;;;;;;;3.65;2.88;;;;;;;;;;5074924;28;20131;-80
2023/09/18 12:52:00;;;;;;;2.47;2.25;;;;;;;;;;5056503;28;20052;-79
2023/09/18 12:54:45;;;;;;;3.20;2.00;;;;;;;;;;5074312;28;20056;-79
2023/09/18 12:57:15;;;;;;;2.50;2.05;;;;;;;;;;5077542;28;20052;-79
2023/09/18 12:59:41;;;;;;;2.80;2.58;;;;;;;;;;5076682;28;20384;-80
2023/09/18 13:02:08;;;;;;;4.40;2.50;;;;;;;;;;5060858;28;20052;-80
2023/09/18 13:04:38;;;;;;;5.45;2.70;;;;;;;;;;5076427;28;20125;-80
2023/09/18 13:07:08;;;;;;;3.15;2.95;;;;;;;;;;5076761;28;20070;-81
2023/09/18 13:09:35;;;;;;;4.40;3.08;;;;;;;;;;5060850;28;20130;-81
2023/09/18 13:12:02;;;;;;;4.00;3.70;;;;;;;;;;5059733;28;20083;-81
2023/09/18 13:14:28;;;;;;;4.95;3.38;;;;;;;;;;5077203;28;20101;-80
2023/09/18 13:17:03;;;;;;;4.93;3.22;;;;;;;;;;5076429;28;20052;-81
2023/09/18 13:19:29;;;;;;;3.17;2.90;;;;;;;;;;5060532;28;20533;-81
2023/09/18 13:21:55;;;;;;;5.70;3.25;;;;;;;;;;5077106;28;20094;-81
2023/09/18 13:24:28;;;;;;;3.50;3.20;;;;;;;;;;5060349;28;20040;-82
2023/09/18 13:26:54;;;;;;;5.22;3.53;;;;;;;;;;5060512;28;20040;-81
2023/09/18 13:29:21;;;;;;;4.32;3.83;;;;;;;;;;5076964;28;20051;-81
2023/09/18 13:31:47;;;;;;;3.17;3.00;;;;;;;;;;5076185;28;20047;-81
2023/09/18 13:34:17;;;;;;;3.03;2.83;;;;;;;;;;5075792;28;20100;-81
2023/09/18 13:36:43;;;;;;;4.22;2.53;;;;;;;;;;5043715;28;20086;-81
2023/09/18 13:39:10;;;;;;;4.40;2.38;;;;;;;;;;5059743;28;20048;-81
2023/09/18 13:41:36;;;;;;;3.15;1.75;;;;;;;;;;5059714;28;20052;-81
2023/09/18 13:44:02;;;;;;;5.15;2.22;;;;;;;;;;5059470;28;20047;-81
2023/09/18 13:46:29;;;;;;;3.70;2.38;;;;;;;;;;5076018;28;20048;-82
2023/09/18 13:48:55;;;;;;;2.00;1.90;;;;;;;;;;5059158;28;20075;-81
2023/09/18 13:51:21;;;;;;;3.90;1.77;;;;;;;;;;5076208;28;20056;-80
2023/09/18 13:53:48;;;;;;;3.05;1.48;;;;;;;;;;5075318;28;20052;-81
2023/09/18 13:56:14;;;;;;;4.40;1.73;;;;;;;;;;5075913;28;20101;-81
2023/09/18 13:58:41;;;;;;;4.05;2.10;;;;;;;;;;5059260;28;20044;-80
2023/09/18 14:01:07;;;;;;;1.85;1.58;;;;;;;;;;5059152;28;20075;-81
2023/09/18 14:03:34;;;;;;;2.83;1.65;;;;;;;;;;5078429;28;20048;-81
2023/09/18 14:06:00;;;;;;;4.30;1.73;;;;;;;;;;5063204;28;20097;-80
2023/09/18 14:08:26;;;;;;;3.83;1.58;;;;;;;;;;5063223;28;20080;-80
2023/09/18 14:10:52;;;;;;;2.90;1.52;;;;;;;;;;5080606;28;20083;-80
2023/09/18 14:13:18;;;;;;;3.67;2.00;;;;;;;;;;5047442;28;20048;-80
2023/09/18 14:15:44;;;;;;;3.85;1.95;;;;;;;;;;5079398;28;20086;-80
2023/09/18 14:18:13;;;;;;;3.50;1.52;;;;;;;;;;5079608;28;20476;-80
2023/09/18 14:20:41;;;;;;;3.00;1.73;;;;;;;;;;5079618;28;20522;-80
2023/09/18 14:23:07;;;;;;;4.88;1.80;;;;;;;;;;5079633;28;20044;-81
2023/09/18 14:25:33;;;;;;;2.58;1.20;;;;;;;;;;5062726;28;20403;-80
2023/09/18 14:27:59;;;;;;;3.25;1.48;;;;;;;;;;5079472;28;20044;-80
2023/09/18 14:30:31;;;;;;;2.15;1.58;;;;;;;;;;5079511;28;20048;-80